Time;durP1;ratioP1;P1;durP2;ratioP2;P2;SDS_P1;SDS_P2;PMS_P1;PMS_P2;Temp;Humidity;BMP_temperature;BMP_pressure;BME280_temperature;BME280_humidity;BME280_pressure;Samples;Min_cycle;Max_cycle;Signal;HPM_P1;HPM_P2
2022/11/26 00:00:21;;;;;;;26.10;8.40;;;4.50;99.90;;;;;;5074578;28;20131;-32
2022/11/26 00:02:47;;;;;;;28.35;8.57;;;4.60;99.90;;;;;;5074489;28;20524;-32
2022/11/26 00:05:14;;;;;;;35.45;8.90;;;4.60;99.90;;;;;;5074430;28;20083;-32
2022/11/26 00:07:43;;;;;;;32.03;8.90;;;4.40;99.90;;;;;;5074431;28;20129;-31
2022/11/26 00:10:21;;;;;;;33.38;7.53;;;4.40;99.90;;;;;;5074364;28;20051;-31
2022/11/26 00:12:47;;;;;;;35.70;7.88;;;4.30;99.90;;;;;;5073930;28;20079;-31
2022/11/26 00:15:19;;;;;;;34.90;7.18;;;4.20;99.90;;;;;;5074206;28;20045;-31
2022/11/26 00:17:45;;;;;;;26.02;8.88;;;4.30;99.90;;;;;;5074240;28;20052;-32
2022/11/26 00:20:11;;;;;;;28.20;8.68;;;4.30;99.90;;;;;;5074194;28;20113;-32
2022/11/26 00:22:44;;;;;;;29.67;7.07;;;4.30;99.90;;;;;;5074142;28;20052;-32
2022/11/26 00:25:18;;;;;;;;;;;4.30;99.90;;;;;;5074522;28;20036;-31
2022/11/26 00:27:44;;;;;;;28.00;7.78;;;4.40;99.90;;;;;;5074347;28;19982;-32
2022/11/26 00:30:24;;;;;;;28.40;8.10;;;4.40;99.90;;;;;;5074029;28;20045;-32
2022/11/26 00:32:51;;;;;;;34.15;8.52;;;4.40;99.90;;;;;;5074028;28;20102;-31
2022/11/26 00:35:18;;;;;;;35.83;9.18;;;4.40;99.90;;;;;;5073917;28;20536;-32
2022/11/26 00:37:54;;;;;;;27.65;7.80;;;4.50;99.90;;;;;;5074168;28;20140;-32
2022/11/26 00:40:21;;;;;;;35.65;8.65;;;4.40;99.90;;;;;;5073918;28;20471;-31
2022/11/26 00:42:47;;;;;;;30.67;10.15;;;4.40;99.90;;;;;;5072914;28;20194;-31
2022/11/26 00:45:22;;;;;;;38.35;8.15;;;4.30;99.90;;;;;;5074041;28;20132;-32
2022/11/26 00:47:48;;;;;;;45.13;8.60;;;4.20;99.90;;;;;;5073836;28;20040;-32
2022/11/26 00:50:23;;;;;;;29.58;7.93;;;4.10;99.90;;;;;;5073038;28;20052;-31
2022/11/26 00:52:52;;;;;;;38.05;8.63;;;4.20;99.90;;;;;;5074320;28;20058;-32
2022/11/26 00:55:37;;;;;;;27.42;7.82;;;4.20;99.90;;;;;;5073315;28;20056;-31
2022/11/26 00:58:04;;;;;;;27.08;7.72;;;4.10;99.90;;;;;;5073675;28;20052;-32
2022/11/26 01:00:32;;;;;;;40.55;9.07;;;4.10;99.90;;;;;;5073347;28;20574;-32
2022/11/26 01:02:58;;;;;;;35.50;9.07;;;4.00;99.90;;;;;;5073567;28;20132;-31
2022/11/26 01:05:29;;;;;;;28.02;8.73;;;3.90;99.90;;;;;;5072355;28;20048;-31
2022/11/26 01:07:58;;;;;;;30.33;8.25;;;4.00;99.90;;;;;;5074194;28;20051;-31
2022/11/26 01:10:26;;;;;;;35.20;9.13;;;3.90;99.90;;;;;;5074294;28;20045;-32
2022/11/26 01:12:52;;;;;;;33.08;8.00;;;3.90;99.90;;;;;;5073479;28;20048;-31
2022/11/26 01:15:21;;;;;;;36.78;9.45;;;3.70;99.90;;;;;;5072393;28;20509;-32
2022/11/26 01:17:47;;;;;;;32.25;7.82;;;3.60;99.90;;;;;;5073414;28;20040;-32
2022/11/26 01:20:27;;;;;;;36.28;9.18;;;3.70;99.90;;;;;;5073423;28;20049;-32
2022/11/26 01:22:55;;;;;;;32.13;9.18;;;3.60;99.90;;;;;;5074331;28;20048;-31
2022/11/26 01:25:22;;;;;;;37.35;9.95;;;3.60;99.90;;;;;;5074494;28;20487;-31
2022/11/26 01:27:48;;;;;;;30.85;9.27;;;3.60;99.90;;;;;;5077579;28;20040;-31
2022/11/26 01:30:19;;;;;;;29.80;8.82;;;3.60;99.90;;;;;;5077185;28;20455;-31
2022/11/26 01:32:47;;;;;;;33.28;9.27;;;3.60;99.90;;;;;;5077775;28;20055;-32
2022/11/26 01:35:13;;;;;;;30.98;8.93;;;3.60;99.90;;;;;;5076454;28;20051;-31
2022/11/26 01:37:39;;;;;;;38.25;9.65;;;3.50;99.90;;;;;;5078182;28;20048;-32
2022/11/26 01:40:26;;;;;;;36.40;9.45;;;3.50;99.90;;;;;;5077134;28;20479;-31
2022/11/26 01:43:10;;;;;;;31.77;8.82;;;3.30;99.90;;;;;;5077837;28;20088;-31
2022/11/26 01:45:36;;;;;;;34.10;10.15;;;3.20;99.90;;;;;;5078012;28;20490;-31
2022/11/26 01:48:30;;;;;;;30.83;9.35;;;3.20;99.90;;;;;;5077940;28;20129;-31
2022/11/26 01:51:04;;;;;;;38.40;11.82;;;3.10;99.90;;;;;;5075658;28;20059;-31
2022/11/26 01:53:47;;;;;;;31.20;9.73;;;3.30;99.90;;;;;;5075827;28;20051;-31
2022/11/26 01:56:18;;;;;;;28.60;9.38;;;3.40;99.90;;;;;;5077421;28;20056;-31
2022/11/26 01:58:54;;;;;;;36.30;8.88;;;3.60;99.90;;;;;;5077537;28;20368;-31
2022/11/26 02:01:21;;;;;;;35.42;9.45;;;3.60;99.90;;;;;;5077150;28;20048;-32
2022/11/26 02:04:10;;;;;;;33.38;9.90;;;3.90;99.90;;;;;;5077269;28;20064;-31
2022/11/26 02:06:36;;;;;;;35.83;10.73;;;3.80;99.90;;;;;;5076615;28;20052;-31
2022/11/26 02:09:05;;;;;;;29.98;9.52;;;3.90;99.90;;;;;;5076673;28;20075;-31
2022/11/26 02:11:31;;;;;;;41.55;10.25;;;3.90;99.90;;;;;;5077168;28;20127;-31
2022/11/26 02:14:37;;;;;;;31.75;9.95;;;4.10;99.90;;;;;;5076359;28;20127;-31
2022/11/26 02:17:09;;;;;;;42.95;10.75;;;4.00;99.90;;;;;;5070769;28;20064;-31
2022/11/26 02:19:56;;;;;;;31.10;9.43;;;4.10;99.90;;;;;;5075291;28;20048;-33
2022/11/26 02:22:22;;;;;;;36.63;9.52;;;3.80;99.90;;;;;;5077068;28;20441;-30
2022/11/26 02:25:14;;;;;;;39.15;10.75;;;3.90;99.90;;;;;;5075935;28;20089;-30
2022/11/26 02:28:12;;;;;;;30.27;9.18;;;3.90;99.90;;;;;;5076359;28;20048;-31
2022/11/26 02:30:44;;;;;;;40.08;10.20;;;3.90;99.90;;;;;;5075921;28;20102;-32
2022/11/26 02:33:44;;;;;;;38.70;10.45;;;4.10;99.90;;;;;;5076296;28;20487;-30
2022/11/26 02:36:33;;;;;;;35.33;9.98;;;3.90;99.90;;;;;;5053977;28;20048;-29
2022/11/26 02:39:17;;;;;;;33.60;9.98;;;3.80;99.90;;;;;;5076786;28;20123;-29
2022/11/26 02:41:45;;;;;;;42.55;10.30;;;3.70;99.90;;;;;;5076627;28;20383;-29
2022/11/26 02:44:12;;;;;;;31.17;9.05;;;3.70;99.90;;;;;;5075777;28;20041;-30
2022/11/26 02:46:40;;;;;;;29.55;10.13;;;3.90;99.90;;;;;;5074889;28;20040;-30
2022/11/26 02:49:08;;;;;;;29.20;8.77;;;3.60;99.90;;;;;;5076007;28;20044;-30
2022/11/26 02:51:34;;;;;;;43.17;12.38;;;3.80;99.90;;;;;;5075963;28;20080;-29
2022/11/26 02:54:01;;;;;;;38.58;9.77;;;3.90;99.90;;;;;;5076458;28;20409;-29
2022/11/26 02:56:28;;;;;;;37.65;10.95;;;3.80;99.90;;;;;;5075986;28;20044;-29
2022/11/26 02:58:55;;;;;;;29.23;9.50;;;3.90;99.90;;;;;;5075809;28;20136;-29
2022/11/26 03:01:36;;;;;;;35.40;10.85;;;4.20;99.90;;;;;;5076038;28;20045;-30
2022/11/26 03:04:08;;;;;;;37.97;10.30;;;4.10;99.90;;;;;;5075710;28;20086;-30
2022/11/26 03:06:34;;;;;;;35.63;9.77;;;4.20;99.90;;;;;;5076298;28;20045;-29
2022/11/26 03:09:00;;;;;;;35.92;11.35;;;4.00;99.90;;;;;;5074658;28;20049;-30
2022/11/26 03:11:26;;;;;;;38.92;10.55;;;4.10;99.90;;;;;;5075590;28;20040;-30
2022/11/26 03:13:52;;;;;;;30.02;9.10;;;4.10;99.90;;;;;;5075606;28;20048;-30
2022/11/26 03:16:17;;;;;;;43.90;11.18;;;4.00;99.90;;;;;;5075242;28;20055;-29
2022/11/26 03:18:43;;;;;;;29.50;9.57;;;4.10;99.90;;;;;;5075976;28;20127;-30
2022/11/26 03:21:09;;;;;;;37.65;10.20;;;4.20;99.90;;;;;;5075996;28;20047;-31
2022/11/26 03:23:34;;;;;;;30.83;10.02;;;4.30;99.90;;;;;;5075271;28;20363;-29
2022/11/26 03:26:00;;;;;;;31.90;10.73;;;4.20;99.90;;;;;;5074636;28;20135;-29
2022/11/26 03:28:26;;;;;;;42.83;10.95;;;4.20;99.90;;;;;;5075257;28;20045;-30
2022/11/26 03:30:52;;;;;;;33.03;10.75;;;4.30;99.90;;;;;;5075198;28;20045;-29
2022/11/26 03:33:18;;;;;;;40.08;10.18;;;4.20;99.90;;;;;;5074468;28;20045;-30
2022/11/26 03:35:46;;;;;;;31.80;10.45;;;4.30;99.90;;;;;;5074805;28;20552;-30
2022/11/26 03:38:11;;;;;;;32.53;8.82;;;4.30;99.90;;;;;;5075063;28;20044;-31
2022/11/26 03:40:37;;;;;;;41.90;11.05;;;4.50;99.90;;;;;;5075020;28;20054;-30
2022/11/26 03:43:03;;;;;;;36.70;12.05;;;4.40;99.90;;;;;;5075014;28;20048;-30
2022/11/26 03:45:28;;;;;;;34.78;11.05;;;4.40;99.90;;;;;;5074531;28;20080;-31
2022/11/26 03:47:54;;;;;;;51.67;11.73;;;4.40;99.90;;;;;;5074513;28;20082;-30
2022/11/26 03:50:20;;;;;;;32.83;10.27;;;4.30;99.90;;;;;;5073884;28;20049;-30
2022/11/26 03:52:45;;;;;;;29.40;12.30;;;4.30;99.90;;;;;;5074781;28;20084;-30
2022/11/26 03:55:11;;;;;;;43.13;13.32;;;4.40;99.90;;;;;;5074715;28;20052;-30
2022/11/26 03:57:37;;;;;;;38.00;11.65;;;4.40;99.90;;;;;;5073950;28;20099;-30
2022/11/26 04:00:05;;;;;;;40.80;10.77;;;4.20;99.90;;;;;;5075487;28;20080;-30
2022/11/26 04:02:31;;;;;;;36.83;11.65;;;4.10;99.90;;;;;;5073868;28;20463;-30
2022/11/26 04:04:57;;;;;;;39.50;10.90;;;4.20;99.90;;;;;;5074061;28;20078;-30
2022/11/26 04:07:23;;;;;;;36.40;10.90;;;4.10;99.90;;;;;;5074333;28;20503;-30
2022/11/26 04:09:48;;;;;;;36.70;11.00;;;4.20;99.90;;;;;;5074921;28;20036;-30
2022/11/26 04:12:14;;;;;;;41.25;11.30;;;4.10;99.90;;;;;;5073790;28;20490;-30
2022/11/26 04:14:40;;;;;;;38.65;11.68;;;4.30;99.90;;;;;;5073362;28;20048;-30
2022/11/26 04:17:05;;;;;;;38.72;11.18;;;4.30;99.90;;;;;;5072988;28;20045;-30
2022/11/26 04:19:31;;;;;;;39.90;12.52;;;4.20;99.90;;;;;;5073946;28;20045;-30
2022/11/26 04:21:57;;;;;;;39.55;10.55;;;4.20;99.90;;;;;;5074699;28;20049;-31
2022/11/26 04:24:23;;;;;;;34.60;11.00;;;4.30;99.90;;;;;;5074889;28;20036;-31
2022/11/26 04:26:48;;;;;;;41.55;11.27;;;4.20;99.90;;;;;;5074072;28;20475;-31
2022/11/26 04:29:14;;;;;;;31.70;11.15;;;4.20;99.90;;;;;;5074623;28;20117;-31
2022/11/26 04:31:40;;;;;;;44.38;13.02;;;4.20;99.90;;;;;;5073991;28;20049;-31
2022/11/26 04:34:05;;;;;;;30.48;11.30;;;4.20;99.90;;;;;;5073942;28;20097;-31
2022/11/26 04:36:31;;;;;;;34.63;12.90;;;4.10;99.90;;;;;;5072759;28;20047;-32
2022/11/26 04:38:57;;;;;;;40.92;14.85;;;4.30;99.90;;;;;;5073899;28;20048;-31
2022/11/26 04:41:24;;;;;;;42.72;12.93;;;4.20;99.90;;;;;;5073885;28;20123;-31
2022/11/26 04:43:49;;;;;;;33.35;11.70;;;4.30;99.90;;;;;;5074372;28;20052;-32
2022/11/26 04:46:15;;;;;;;40.08;13.27;;;4.20;99.90;;;;;;5074338;28;20044;-31
2022/11/26 04:48:41;;;;;;;41.80;14.25;;;4.10;99.90;;;;;;5073808;28;20075;-31
2022/11/26 04:51:06;;;;;;;33.47;10.63;;;3.90;99.90;;;;;;5074520;28;20041;-31
2022/11/26 04:53:32;;;;;;;40.05;13.32;;;4.10;99.90;;;;;;5074268;28;20433;-31
2022/11/26 04:55:58;;;;;;;46.28;13.73;;;4.20;99.90;;;;;;5073196;28;20132;-31
2022/11/26 04:58:23;;;;;;;43.10;13.15;;;4.00;99.90;;;;;;5074219;28;20052;-31
2022/11/26 05:00:49;;;;;;;37.58;11.02;;;4.00;99.90;;;;;;5073918;28;20466;-32
2022/11/26 05:03:15;;;;;;;42.13;11.65;;;3.90;99.90;;;;;;5073580;28;20053;-31
2022/11/26 05:05:41;;;;;;;45.95;13.77;;;3.90;99.90;;;;;;5073583;28;20048;-31
2022/11/26 05:08:07;;;;;;;48.08;13.55;;;3.70;99.90;;;;;;5072593;28;20048;-31
2022/11/26 05:10:33;;;;;;;36.20;12.73;;;3.70;99.90;;;;;;5072854;28;20045;-31
2022/11/26 05:12:59;;;;;;;52.30;15.40;;;3.50;99.90;;;;;;5074105;28;20158;-31
2022/11/26 05:15:25;;;;;;;45.65;14.27;;;3.50;99.90;;;;;;5074169;28;20494;-32
2022/11/26 05:17:50;;;;;;;43.95;13.48;;;3.50;99.90;;;;;;5073535;28;20059;-31
2022/11/26 05:20:16;;;;;;;46.40;13.63;;;3.60;99.90;;;;;;5074360;28;20047;-31
2022/11/26 05:22:42;;;;;;;56.60;14.18;;;3.40;99.90;;;;;;5073259;28;20489;-31
2022/11/26 05:25:08;;;;;;;47.13;14.48;;;3.50;99.90;;;;;;5073042;28;20044;-31
2022/11/26 05:27:35;;;;;;;40.17;13.98;;;3.30;99.90;;;;;;5072413;28;20066;-31
2022/11/26 05:30:01;;;;;;;46.13;15.68;;;3.40;99.90;;;;;;5073384;28;20041;-31
2022/11/26 05:32:27;;;;;;;44.22;15.30;;;3.60;99.90;;;;;;5073021;28;20502;-31
2022/11/26 05:34:52;;;;;;;51.13;17.55;;;3.60;99.90;;;;;;5073298;28;20052;-31
2022/11/26 05:37:18;;;;;;;54.47;15.73;;;3.60;99.90;;;;;;5073290;28;20044;-30
2022/11/26 05:39:44;;;;;;;57.42;17.98;;;3.80;99.90;;;;;;5073242;28;20049;-31
2022/11/26 05:42:10;;;;;;;43.67;15.85;;;3.70;99.90;;;;;;5072050;28;20502;-31
2022/11/26 05:44:36;;;;;;;46.45;15.65;;;3.90;99.90;;;;;;5071985;28;20120;-31
2022/11/26 05:47:02;;;;;;;53.80;17.52;;;4.00;99.90;;;;;;5073748;28;20052;-31
2022/11/26 05:49:27;;;;;;;46.08;17.67;;;3.80;99.90;;;;;;5073495;28;20098;-32
2022/11/26 05:51:53;;;;;;;47.78;17.65;;;3.80;99.90;;;;;;5073115;28;20065;-31
2022/11/26 05:54:19;;;;;;;62.97;19.98;;;3.70;99.90;;;;;;5072843;28;20045;-31
2022/11/26 05:56:44;;;;;;;50.00;17.70;;;3.80;99.90;;;;;;5056241;28;20056;-31
2022/11/26 05:59:10;;;;;;;72.85;20.65;;;3.80;99.90;;;;;;5071923;28;20052;-31
2022/11/26 06:01:36;;;;;;;53.58;20.73;;;3.60;99.90;;;;;;5072576;28;20053;-31
2022/11/26 06:04:02;;;;;;;58.33;19.50;;;3.50;99.90;;;;;;5073708;28;20045;-32
2022/11/26 06:06:29;;;;;;;53.80;17.50;;;3.60;99.90;;;;;;5072975;28;20041;-31
2022/11/26 06:08:54;;;;;;;46.30;19.77;;;3.40;99.90;;;;;;5073013;28;20440;-32
2022/11/26 06:11:20;;;;;;;59.05;21.27;;;3.30;99.90;;;;;;5074227;28;20040;-31
2022/11/26 06:13:46;;;;;;;52.13;19.75;;;3.40;99.90;;;;;;5076672;28;20041;-31
2022/11/26 06:16:11;;;;;;;74.90;22.73;;;3.40;99.90;;;;;;5077049;28;20052;-32
2022/11/26 06:18:38;;;;;;;61.10;22.95;;;3.30;99.90;;;;;;5077115;28;20182;-31
2022/11/26 06:21:05;;;;;;;68.95;22.08;;;3.40;99.90;;;;;;5075351;28;20052;-31
2022/11/26 06:23:32;;;;;;;62.13;21.83;;;3.20;99.90;;;;;;5076462;28;20394;-31
2022/11/26 06:25:58;;;;;;;59.35;23.00;;;3.20;99.90;;;;;;5075475;28;20055;-31
2022/11/26 06:28:24;;;;;;;67.43;23.70;;;3.20;99.90;;;;;;5076425;28;20060;-31
2022/11/26 06:30:50;;;;;;;67.88;26.02;;;3.30;99.90;;;;;;5076923;28;20048;-31
2022/11/26 06:33:16;;;;;;;76.57;24.75;;;3.00;99.90;;;;;;5076325;28;20040;-31
2022/11/26 06:35:42;;;;;;;61.25;23.48;;;2.90;99.90;;;;;;5076824;28;20135;-32
2022/11/26 06:38:07;;;;;;;65.45;21.30;;;2.90;99.90;;;;;;5075895;28;20132;-31
2022/11/26 06:40:33;;;;;;;72.03;20.17;;;2.80;99.90;;;;;;5075608;28;20044;-31
2022/11/26 06:42:59;;;;;;;57.40;20.73;;;2.60;99.90;;;;;;5076140;28;20040;-31
2022/11/26 06:45:25;;;;;;;62.72;22.40;;;2.80;99.90;;;;;;5076571;28;20044;-32
2022/11/26 06:47:51;;;;;;;64.72;22.00;;;2.60;99.90;;;;;;5076058;28;20036;-30
2022/11/26 06:50:19;;;;;;;69.60;23.95;;;2.60;99.90;;;;;;5076034;28;20047;-31
2022/11/26 06:52:45;;;;;;;69.93;22.75;;;2.60;99.90;;;;;;5074796;28;20048;-31
2022/11/26 06:55:11;;;;;;;72.50;24.30;;;2.70;99.90;;;;;;5075948;28;20387;-31
2022/11/26 06:57:37;;;;;;;72.47;24.52;;;2.50;99.90;;;;;;5076215;28;20059;-31
2022/11/26 07:00:05;;;;;;;71.00;22.10;;;2.50;99.90;;;;;;5075876;28;20067;-31
2022/11/26 07:02:30;;;;;;;82.57;26.07;;;2.50;99.90;;;;;;5075939;28;20530;-31
2022/11/26 07:04:56;;;;;;;68.35;23.50;;;2.50;99.90;;;;;;5076238;28;20088;-31
2022/11/26 07:07:22;;;;;;;66.40;24.27;;;2.60;99.90;;;;;;5076279;28;20046;-31
2022/11/26 07:09:47;;;;;;;76.88;25.40;;;2.50;99.90;;;;;;5075050;28;20394;-31
2022/11/26 07:12:13;;;;;;;70.93;25.27;;;2.50;99.90;;;;;;5075664;28;20048;-31
2022/11/26 07:14:39;;;;;;;73.93;24.88;;;2.90;99.90;;;;;;5074618;28;20048;-31
2022/11/26 07:17:05;;;;;;;82.22;26.40;;;2.70;99.90;;;;;;5075487;28;20491;-32
2022/11/26 07:19:30;;;;;;;70.93;24.05;;;2.80;99.90;;;;;;5075528;28;20056;-30
2022/11/26 07:21:56;;;;;;;70.10;24.50;;;2.80;99.90;;;;;;5075574;28;20482;-31
2022/11/26 07:24:22;;;;;;;73.65;26.60;;;3.00;99.90;;;;;;5075004;28;20040;-31
2022/11/26 07:26:47;;;;;;;64.30;22.98;;;3.20;99.90;;;;;;5075341;28;20478;-30
2022/11/26 07:29:14;;;;;;;68.70;26.10;;;3.20;99.90;;;;;;5076083;28;20179;-30
2022/11/26 07:31:39;;;;;;;69.88;27.17;;;3.60;99.90;;;;;;5075216;28;20060;-30
2022/11/26 07:34:05;;;;;;;65.70;27.08;;;3.70;99.90;;;;;;5075395;28;20052;-29
2022/11/26 07:36:31;;;;;;;63.38;26.27;;;3.60;99.90;;;;;;5074740;28;20131;-30
2022/11/26 07:38:58;;;;;;;61.60;27.80;;;3.50;99.90;;;;;;5074955;28;20049;-30
2022/11/26 07:41:25;;;;;;;65.60;26.73;;;3.80;99.90;;;;;;5075031;28;20055;-30
2022/11/26 07:43:51;;;;;;;60.58;25.80;;;3.90;99.90;;;;;;5075552;28;20379;-29
2022/11/26 07:46:21;;;;;;;56.78;22.63;;;3.80;99.90;;;;;;5075087;28;20044;-30
2022/11/26 07:48:47;;;;;;;64.68;25.30;;;4.10;99.90;;;;;;5074965;28;20505;-30
2022/11/26 07:51:28;;;;;;;47.47;23.30;;;3.90;99.90;;;;;;5074284;28;20071;-29
2022/11/26 07:53:56;;;;;;;66.22;25.67;;;4.00;99.90;;;;;;5075056;28;20079;-31
2022/11/26 07:56:22;;;;;;;54.75;23.23;;;3.90;99.90;;;;;;5075487;28;20071;-30
2022/11/26 07:58:48;;;;;;;60.85;24.65;;;4.20;99.90;;;;;;5074785;28;20053;-29
2022/11/26 08:01:17;;;;;;;65.00;25.80;;;4.00;99.90;;;;;;5074416;28;20055;-29
2022/11/26 08:03:45;;;;;;;72.03;27.70;;;3.90;99.90;;;;;;5074658;28;20056;-29
2022/11/26 08:06:14;;;;;;;61.97;25.88;;;4.20;99.90;;;;;;5075203;28;20041;-29
2022/11/26 08:08:40;;;;;;;66.68;26.73;;;4.00;99.90;;;;;;5074580;28;20040;-30
2022/11/26 08:11:14;;;;;;;76.38;28.02;;;4.10;99.90;;;;;;5074308;28;20048;-29
2022/11/26 08:13:41;;;;;;;58.33;25.52;;;4.20;99.90;;;;;;5074461;28;20040;-29
2022/11/26 08:16:07;;;;;;;62.42;26.08;;;4.30;99.90;;;;;;5074311;28;20048;-30
2022/11/26 08:18:33;;;;;;;60.67;25.58;;;4.30;99.90;;;;;;5073155;28;20041;-29
2022/11/26 08:20:59;;;;;;;63.55;24.48;;;4.20;99.90;;;;;;5074333;28;20041;-30
2022/11/26 08:23:27;;;;;;;57.60;21.45;;;4.60;99.90;;;;;;5074555;28;20410;-31
2022/11/26 08:25:53;;;;;;;70.13;28.45;;;4.40;99.90;;;;;;5074253;28;20098;-29
2022/11/26 08:28:19;;;;;;;60.38;28.02;;;4.60;99.90;;;;;;5074302;28;20048;-30
2022/11/26 08:30:45;;;;;;;66.78;27.92;;;4.40;99.90;;;;;;5074725;28;20378;-30
2022/11/26 08:33:11;;;;;;;67.95;27.55;;;4.40;99.90;;;;;;5074147;28;20049;-31
2022/11/26 08:35:37;;;;;;;63.53;26.38;;;4.70;99.90;;;;;;5073827;28;20083;-30
2022/11/26 08:38:03;;;;;;;66.57;27.15;;;4.60;99.90;;;;;;5074090;28;20044;-29
2022/11/26 08:40:29;;;;;;;60.45;27.70;;;4.80;99.90;;;;;;5072769;28;20045;-30
2022/11/26 08:42:55;;;;;;;71.07;25.52;;;5.00;99.90;;;;;;5072844;28;20052;-29
2022/11/26 08:45:21;;;;;;;52.20;21.77;;;5.00;99.90;;;;;;5074203;28;20036;-30
2022/11/26 08:47:47;;;;;;;58.25;26.67;;;5.00;99.90;;;;;;5056122;28;20044;-30
2022/11/26 08:50:13;;;;;;;63.63;27.58;;;5.10;99.90;;;;;;5073968;28;20055;-30
2022/11/26 08:52:39;;;;;;;60.72;27.13;;;5.10;99.90;;;;;;5074459;28;20083;-30
2022/11/26 08:55:05;;;;;;;61.75;24.85;;;5.10;99.90;;;;;;5073496;28;20094;-29
2022/11/26 08:57:30;;;;;;;70.10;27.85;;;5.00;99.90;;;;;;5073890;28;20040;-29
2022/11/26 08:59:56;;;;;;;56.92;24.60;;;5.30;99.90;;;;;;5074346;28;20052;-30
2022/11/26 09:02:22;;;;;;;49.15;25.33;;;5.30;99.90;;;;;;5074581;28;20063;-30
2022/11/26 09:04:48;;;;;;;47.90;21.80;;;5.00;99.90;;;;;;5072542;28;20036;-30
2022/11/26 09:07:14;;;;;;;45.38;21.13;;;5.40;99.90;;;;;;5073728;28;20051;-30
2022/11/26 09:09:40;;;;;;;49.20;22.40;;;5.30;99.90;;;;;;5074413;28;20094;-30
2022/11/26 09:12:06;;;;;;;43.97;20.92;;;5.50;99.90;;;;;;5073695;28;20559;-29
2022/11/26 09:14:37;;;;;;;51.40;20.70;;;5.60;99.90;;;;;;5073683;28;20114;-29
2022/11/26 09:17:03;;;;;;;46.47;20.05;;;5.80;99.90;;;;;;5073520;28;20044;-29
2022/11/26 09:19:29;;;;;;;46.72;19.13;;;5.70;99.90;;;;;;5073598;28;20045;-30
2022/11/26 09:21:55;;;;;;;44.35;19.20;;;5.70;99.90;;;;;;5072397;28;20448;-29
2022/11/26 09:24:21;;;;;;;44.58;19.10;;;5.90;99.90;;;;;;5055440;28;20045;-30
2022/11/26 09:26:47;;;;;;;46.72;18.88;;;5.90;99.90;;;;;;5073526;28;20095;-30
2022/11/26 09:29:15;;;;;;;34.10;16.17;;;6.00;99.90;;;;;;5074062;28;20463;-30
2022/11/26 09:31:43;;;;;;;44.90;17.60;;;6.10;99.90;;;;;;5074216;28;20075;-30
2022/11/26 09:34:09;;;;;;;40.53;16.25;;;6.00;99.90;;;;;;5073451;28;20040;-29
2022/11/26 09:36:35;;;;;;;41.08;16.52;;;6.10;99.90;;;;;;5073415;28;20063;-29
2022/11/26 09:39:01;;;;;;;36.70;16.23;;;6.00;99.90;;;;;;5072286;28;20044;-29
2022/11/26 09:41:35;;;;;;;42.13;14.82;;;6.20;99.90;;;;;;5073345;28;20103;-29
2022/11/26 09:44:25;;;;;;;32.25;14.30;;;6.20;99.90;;;;;;5073853;28;20437;-29
2022/11/26 09:46:59;;;;;;;47.00;17.98;;;6.30;99.90;;;;;;5074370;28;20051;-29
2022/11/26 09:49:29;;;;;;;40.45;14.20;;;6.30;99.90;;;;;;5077941;28;20048;-31
2022/11/26 09:51:57;;;;;;;32.10;13.88;;;6.40;99.90;;;;;;5078146;28;20206;-29
2022/11/26 09:54:27;;;;;;;30.00;13.60;;;6.60;99.90;;;;;;5077075;28;20043;-29
2022/11/26 09:57:13;;;;;;;33.30;13.40;;;6.40;99.90;;;;;;5077252;28;20056;-30
2022/11/26 09:59:40;;;;;;;30.15;12.90;;;6.50;99.90;;;;;;5077123;28;20083;-30
2022/11/26 10:02:12;;;;;;;27.60;12.35;;;6.60;99.90;;;;;;5077294;28;20154;-30
2022/11/26 10:04:39;;;;;;;42.63;13.97;;;6.60;99.90;;;;;;5075884;28;20045;-30
2022/11/26 10:07:23;;;;;;;34.20;12.77;;;6.60;99.90;;;;;;5076895;28;20048;-30
2022/11/26 10:09:48;;;;;;;35.17;12.90;;;6.60;99.90;;;;;;5077007;28;20040;-30
2022/11/26 10:12:46;;;;;;;33.58;11.77;;;6.70;99.90;;;;;;5076866;28;20123;-30
2022/11/26 10:15:15;;;;;;;28.42;10.70;;;6.60;99.90;;;;;;5076983;28;20440;-31
2022/11/26 10:18:24;;;;;;;43.83;13.10;;;6.80;99.90;;;;;;5075547;28;20048;-30
2022/11/26 10:21:09;;;;;;;34.40;12.73;;;6.70;99.90;;;;;;5077631;28;20048;-30
2022/11/26 10:23:49;;;;;;;30.23;11.80;;;6.80;99.90;;;;;;5059051;28;20549;-30
2022/11/26 10:26:38;;;;;;;30.60;12.05;;;6.90;99.90;;;;;;5076919;28;20111;-30
2022/11/26 10:29:23;;;;;;;38.35;13.40;;;7.00;99.90;;;;;;5077355;28;20049;-30
2022/11/26 10:31:55;;;;;;;32.03;12.35;;;7.00;99.90;;;;;;5076476;28;20535;-31
2022/11/26 10:34:37;;;;;;;44.28;13.63;;;7.20;99.90;;;;;;5075844;28;20052;-30
2022/11/26 10:37:03;;;;;;;38.75;13.70;;;7.20;99.90;;;;;;5075499;28;20482;-31
2022/11/26 10:39:29;;;;;;;32.90;13.43;;;7.30;99.90;;;;;;5076400;28;20051;-30
2022/11/26 10:41:55;;;;;;;30.90;11.73;;;7.30;99.90;;;;;;5075361;28;20117;-30
2022/11/26 10:44:35;;;;;;;33.53;11.85;;;7.40;99.90;;;;;;5075461;28;20076;-31
2022/11/26 10:47:27;;;;;;;24.85;10.93;;;7.40;99.90;;;;;;5076414;28;20401;-30
2022/11/26 10:50:34;;;;;;;32.20;13.05;;;7.40;99.90;;;;;;5076186;28;20045;-30
2022/11/26 10:53:05;;;;;;;41.72;11.07;;;7.50;99.90;;;;;;5077001;28;20049;-32
2022/11/26 10:55:42;;;;;;;38.03;13.02;;;7.50;99.90;;;;;;5076540;28;20359;-30
2022/11/26 10:58:18;;;;;;;37.13;12.85;;;7.50;99.90;;;;;;5075689;28;20506;-31
2022/11/26 11:01:04;;;;;;;33.42;13.15;;;7.60;99.90;;;;;;5075968;28;20483;-30
2022/11/26 11:03:51;;;;;;;33.83;11.95;;;7.60;99.90;;;;;;5076683;28;20118;-31
2022/11/26 11:06:20;;;;;;;27.58;10.82;;;7.60;99.90;;;;;;5054471;28;20075;-32
2022/11/26 11:08:47;;;;;;;27.50;11.45;;;7.70;99.90;;;;;;5076596;28;20052;-31
2022/11/26 11:11:25;;;;;;;30.40;11.32;;;7.60;99.90;;;;;;5075767;28;20522;-32
2022/11/26 11:13:52;;;;;;;31.40;12.50;;;7.60;99.90;;;;;;5076046;28;20052;-31
2022/11/26 11:16:30;;;;;;;35.05;12.00;;;7.70;99.90;;;;;;5075586;28;20056;-31
2022/11/26 11:18:59;;;;;;;36.38;12.00;;;7.70;99.90;;;;;;5075667;28;20123;-31
2022/11/26 11:21:31;;;;;;;38.90;11.88;;;7.70;99.90;;;;;;5075609;28;20088;-32
2022/11/26 11:24:16;;;;;;;31.50;12.95;;;7.80;99.90;;;;;;5075300;28;20044;-32
2022/11/26 11:26:46;;;;;;;36.83;14.32;;;7.80;99.90;;;;;;5075548;28;20494;-31
2022/11/26 11:29:33;;;;;;;30.20;12.10;;;7.80;99.90;;;;;;5076173;28;20438;-31
2022/11/26 11:32:01;;;;;;;33.22;15.93;;;7.90;99.90;;;;;;5075774;28;20063;-31
2022/11/26 11:34:34;;;;;;;58.05;16.27;;;7.90;99.90;;;;;;5075386;28;20044;-32
2022/11/26 11:37:04;;;;;;;48.25;18.92;;;7.90;99.90;;;;;;5074178;28;20051;-32
2022/11/26 11:39:32;;;;;;;46.67;21.67;;;8.00;99.90;;;;;;5076305;28;20119;-33
2022/11/26 11:42:00;;;;;;;43.65;19.92;;;8.00;99.90;;;;;;5075203;28;20041;-32
2022/11/26 11:44:46;;;;;;;45.80;26.45;;;8.00;99.90;;;;;;5074699;28;20433;-32
2022/11/26 11:47:23;;;;;;;237.10;152.88;;;8.00;99.90;;;;;;5075860;28;20423;-32
2022/11/26 11:50:28;;;;;;;69.72;39.95;;;8.10;99.90;;;;;;5075044;28;20044;-32
2022/11/26 11:53:33;;;;;;;30.80;14.07;;;8.10;99.90;;;;;;5075068;28;20139;-32
2022/11/26 11:56:37;;;;;;;28.40;12.25;;;8.10;99.90;;;;;;5074786;28;20582;-31
2022/11/26 11:59:36;;;;;;;31.52;11.73;;;8.10;99.90;;;;;;5032847;28;20049;-33
2022/11/26 12:02:13;;;;;;;27.55;14.52;;;8.10;99.90;;;;;;5074842;28;20498;-32
2022/11/26 12:04:39;;;;;;;39.95;15.27;;;8.10;99.90;;;;;;5073841;28;20130;-32
2022/11/26 12:07:14;;;;;;;37.45;13.05;;;8.20;99.90;;;;;;5073990;28;20108;-32
2022/11/26 12:09:48;;;;;;;29.30;11.57;;;8.00;99.90;;;;;;5074024;28;20059;-33
2022/11/26 12:12:44;;;;;;;29.05;11.95;;;8.20;99.90;;;;;;5074664;28;20054;-32
2022/11/26 12:15:22;;;;;;;31.88;11.82;;;8.30;99.90;;;;;;5073843;28;20057;-32
2022/11/26 12:18:17;;;;;;;33.08;12.95;;;8.30;99.90;;;;;;5074486;28;20099;-33
2022/11/26 12:20:48;;;;;;;34.08;12.70;;;8.30;99.90;;;;;;5075007;28;20095;-33
2022/11/26 12:23:27;;;;;;;32.30;13.52;;;8.40;99.90;;;;;;5074718;28;20131;-32
2022/11/26 12:26:00;;;;;;;29.48;12.63;;;8.40;99.90;;;;;;5074449;28;20049;-33
2022/11/26 12:28:54;;;;;;;35.35;13.48;;;8.30;99.90;;;;;;5074616;28;20044;-32
2022/11/26 12:31:30;;;;;;;27.00;11.27;;;8.40;99.90;;;;;;5073097;28;20085;-33
2022/11/26 12:34:05;;;;;;;27.08;12.23;;;8.30;99.90;;;;;;5075106;28;20398;-33
2022/11/26 12:36:54;;;;;;;24.40;11.02;;;8.20;99.90;;;;;;5072951;28;20056;-33
2022/11/26 12:39:44;;;;;;;26.08;10.52;;;8.20;99.90;;;;;;5074191;28;20056;-33
2022/11/26 12:42:46;;;;;;;27.83;11.70;;;8.20;99.90;;;;;;5075231;28;20048;-32
2022/11/26 12:45:16;;;;;;;33.00;12.57;;;8.20;99.90;;;;;;5074560;28;20379;-33
2022/11/26 12:47:50;;;;;;;30.90;12.05;;;8.20;99.90;;;;;;5074018;28;20040;-33
2022/11/26 12:50:29;;;;;;;28.20;11.32;;;8.10;99.90;;;;;;5074008;28;20044;-32
2022/11/26 12:53:11;;;;;;;42.05;13.10;;;8.20;99.90;;;;;;5073917;28;20158;-32
2022/11/26 12:55:55;;;;;;;33.63;12.23;;;8.20;99.90;;;;;;5073733;28;20052;-33